createdAt,value
2018-05-01T00:02:25.905Z,0.90
2018-05-01T00:04:53.327Z,0.70
2018-05-01T00:07:20.775Z,0.80
2018-05-01T00:09:48.200Z,0.75
2018-05-01T00:12:15.778Z,0.90
2018-05-01T00:14:43.251Z,1.00
2018-05-01T00:17:10.706Z,1.02
2018-05-01T00:19:38.120Z,0.80
2018-05-01T00:22:05.941Z,0.80
2018-05-01T00:24:33.374Z,1.10
2018-05-01T00:27:00.841Z,0.70
2018-05-01T00:29:28.294Z,0.70
2018-05-01T00:31:55.699Z,0.88
2018-05-01T00:34:23.177Z,1.10
2018-05-01T00:36:50.641Z,0.80
2018-05-01T00:39:18.071Z,0.98
2018-05-01T00:41:45.513Z,0.73
2018-05-01T00:44:12.922Z,0.80
2018-05-01T00:46:41.227Z,0.82
2018-05-01T00:49:08.670Z,0.85
2018-05-01T00:51:36.142Z,0.73
2018-05-01T00:54:03.499Z,0.90
2018-05-01T00:56:30.921Z,0.90
2018-05-01T00:58:58.498Z,1.10
2018-05-01T01:01:25.920Z,0.80
2018-05-01T01:03:53.376Z,0.82
2018-05-01T01:06:20.801Z,1.00
2018-05-01T01:08:48.235Z,1.23
2018-05-01T01:11:15.783Z,0.88
2018-05-01T01:13:43.244Z,1.02
2018-05-01T01:16:10.676Z,0.80
2018-05-01T01:18:38.096Z,0.90
2018-05-01T01:21:05.589Z,0.85
2018-05-01T01:23:33.019Z,1.00
2018-05-01T01:26:00.414Z,1.08
2018-05-01T01:28:27.845Z,0.90
2018-05-01T01:30:55.352Z,0.75
2018-05-01T01:33:22.809Z,0.60
2018-05-01T01:35:49.659Z,0.80
2018-05-01T01:38:16.589Z,0.90
2018-05-01T01:40:43.469Z,0.70
2018-05-01T01:43:10.334Z,0.90
2018-05-01T01:45:37.278Z,0.70
2018-05-01T01:48:04.217Z,1.12
2018-05-01T01:50:31.114Z,1.02
2018-05-01T01:52:58.275Z,1.20
2018-05-01T01:55:25.151Z,1.67
2018-05-01T01:57:52.078Z,0.85
2018-05-01T02:00:18.988Z,0.90
2018-05-01T02:02:45.883Z,0.70
2018-05-01T02:05:12.777Z,1.00
2018-05-01T02:07:39.972Z,0.70
2018-05-01T02:10:06.866Z,1.15
2018-05-01T02:12:33.749Z,0.80
2018-05-01T02:15:00.655Z,0.80
2018-05-01T02:17:27.511Z,0.95
2018-05-01T02:19:54.369Z,0.80
2018-05-01T02:22:21.272Z,0.90
2018-05-01T02:24:48.137Z,0.80
2018-05-01T02:27:14.987Z,0.80
2018-05-01T02:29:41.907Z,0.93
2018-05-01T02:32:08.803Z,1.00
2018-05-01T02:34:35.734Z,0.80
2018-05-01T02:37:02.682Z,0.90
2018-05-01T02:39:29.598Z,0.80
2018-05-01T02:41:56.563Z,0.60
2018-05-01T02:44:23.429Z,0.80
2018-05-01T02:46:50.364Z,0.80
2018-05-01T02:49:17.314Z,0.95
2018-05-01T02:51:44.231Z,0.70
2018-05-01T02:54:11.758Z,0.70
2018-05-01T02:56:38.648Z,0.88
2018-05-01T02:59:05.584Z,0.90
2018-05-01T03:01:32.438Z,0.70
2018-05-01T03:03:59.319Z,0.60
2018-05-01T03:06:26.217Z,0.60
2018-05-01T03:08:53.153Z,0.65
2018-05-01T03:11:20.042Z,0.90
2018-05-01T03:13:46.964Z,1.15
2018-05-01T03:16:13.860Z,0.70
2018-05-01T03:18:40.791Z,0.55
2018-05-01T03:21:07.736Z,0.50
2018-05-01T03:23:35.272Z,0.70
2018-05-01T03:26:02.176Z,0.60
2018-05-01T03:28:29.065Z,0.60
2018-05-01T03:30:55.992Z,0.60
2018-05-01T03:33:22.881Z,0.50
2018-05-01T03:35:49.761Z,0.60
2018-05-01T03:38:16.700Z,0.77
2018-05-01T03:40:43.591Z,1.02
2018-05-01T03:43:10.490Z,0.50
2018-05-01T03:45:37.385Z,0.50
2018-05-01T03:48:04.265Z,0.60
2018-05-01T03:50:31.149Z,0.60
2018-05-01T03:52:58.013Z,0.80
2018-05-01T03:55:24.862Z,0.60
2018-05-01T03:57:51.767Z,0.73
2018-05-01T04:00:18.688Z,0.60
2018-05-01T04:02:45.653Z,0.73
2018-05-01T04:05:12.528Z,0.68
2018-05-01T04:07:39.381Z,0.57
2018-05-01T04:10:06.276Z,0.60
2018-05-01T04:12:33.224Z,0.62
2018-05-01T04:15:00.271Z,0.68
2018-05-01T04:17:27.111Z,0.60
2018-05-01T04:19:54.022Z,0.77
2018-05-01T04:22:20.947Z,0.60
2018-05-01T04:24:47.843Z,0.60
2018-05-01T04:27:14.727Z,0.77
2018-05-01T04:29:41.628Z,0.65
2018-05-01T04:32:08.526Z,0.65
2018-05-01T04:34:35.394Z,0.70
2018-05-01T04:37:02.262Z,1.40
2018-05-01T04:39:29.154Z,0.70
2018-05-01T04:41:56.079Z,0.98
2018-05-01T04:44:22.986Z,0.80
2018-05-01T04:46:49.854Z,0.62
2018-05-01T04:49:16.784Z,0.88
2018-05-01T04:51:43.752Z,0.60
2018-05-01T04:54:10.604Z,0.60
2018-05-01T04:56:37.764Z,0.60
2018-05-01T04:59:04.685Z,0.50
2018-05-01T05:01:31.571Z,0.50
2018-05-01T05:03:58.512Z,0.75
2018-05-01T05:06:25.438Z,0.80
2018-05-01T05:08:52.320Z,0.80
2018-05-01T05:11:19.272Z,0.70
2018-05-01T05:13:46.162Z,0.62
2018-05-01T05:16:13.019Z,0.73
2018-05-01T05:18:39.880Z,0.80
2018-05-01T05:21:06.804Z,0.50
2018-05-01T05:23:33.698Z,0.62
2018-05-01T05:26:00.660Z,0.70
2018-05-01T05:28:27.629Z,1.10
2018-05-01T05:30:54.591Z,1.17
2018-05-01T05:33:21.490Z,0.60
2018-05-01T05:35:48.399Z,0.70
2018-05-01T05:38:15.327Z,0.82
2018-05-01T05:40:42.305Z,1.02
2018-05-01T05:43:09.196Z,0.98
2018-05-01T05:45:36.141Z,0.80
2018-05-01T05:48:03.000Z,0.60
2018-05-01T05:50:29.898Z,0.90
2018-05-01T05:52:56.920Z,0.90
2018-05-01T05:55:24.105Z,1.00
2018-05-01T05:57:51.049Z,0.70
2018-05-01T06:00:17.948Z,0.80
2018-05-01T06:02:45.706Z,0.90
2018-05-01T06:05:12.598Z,2.00
2018-05-01T06:07:39.642Z,1.27
2018-05-01T06:10:06.520Z,1.75
2018-05-01T06:12:33.513Z,2.30
2018-05-01T06:15:00.358Z,3.05
2018-05-01T06:17:27.261Z,0.60
2018-05-01T06:19:54.164Z,1.70
2018-05-01T06:22:21.013Z,2.15
2018-05-01T06:24:48.089Z,0.82
2018-05-01T06:27:14.981Z,0.90
2018-05-01T06:29:41.860Z,0.90
2018-05-01T06:32:08.752Z,0.80
2018-05-01T06:34:35.627Z,0.80
2018-05-01T06:37:02.563Z,0.80
2018-05-01T06:39:29.499Z,0.70
2018-05-01T06:41:56.380Z,0.75
2018-05-01T06:44:23.303Z,0.70
2018-05-01T06:46:50.199Z,0.85
2018-05-01T06:49:17.088Z,0.90
2018-05-01T06:51:43.999Z,0.75
2018-05-01T06:54:10.955Z,0.80
2018-05-01T06:56:37.872Z,0.93
2018-05-01T06:59:04.835Z,1.00
2018-05-01T07:01:31.733Z,0.95
2018-05-01T07:03:58.655Z,0.70
2018-05-01T07:06:25.563Z,1.10
2018-05-01T07:08:52.457Z,0.80
2018-05-01T07:11:19.438Z,0.95
2018-05-01T07:13:46.303Z,1.05
2018-05-01T07:16:13.158Z,0.90
2018-05-01T07:18:40.050Z,0.95
2018-05-01T07:21:06.981Z,0.60
2018-05-01T07:23:33.892Z,0.60
2018-05-01T07:26:00.946Z,0.60
2018-05-01T07:28:27.816Z,0.73
2018-05-01T07:30:54.816Z,0.50
2018-05-01T07:33:21.721Z,0.57
2018-05-01T07:35:48.654Z,0.80
2018-05-01T07:38:15.521Z,0.60
2018-05-01T07:40:42.412Z,0.60
2018-05-01T07:43:09.261Z,0.60
2018-05-01T07:45:36.187Z,1.15
2018-05-01T07:48:03.115Z,0.82
2018-05-01T07:50:30.034Z,1.77
2018-05-01T07:52:57.059Z,0.60
2018-05-01T07:55:23.959Z,1.33
2018-05-01T07:57:50.866Z,0.70
2018-05-01T08:00:17.826Z,0.75
2018-05-01T08:02:44.847Z,1.10
2018-05-01T08:05:11.925Z,0.80
2018-05-01T08:07:38.969Z,4.40
2018-05-01T08:10:05.860Z,1.45
2018-05-01T08:12:32.776Z,0.70
2018-05-01T08:14:59.720Z,0.50
2018-05-01T08:17:26.652Z,0.85
2018-05-01T08:19:53.572Z,0.70
2018-05-01T08:22:20.622Z,0.80
2018-05-01T08:24:48.244Z,3.08
2018-05-01T08:27:15.339Z,1.05
2018-05-01T08:29:42.189Z,0.52
2018-05-01T08:32:09.149Z,0.60
2018-05-01T08:34:36.057Z,0.80
2018-05-01T08:37:02.982Z,1.58
2018-05-01T08:39:29.889Z,1.33
2018-05-01T08:41:56.734Z,1.48
2018-05-01T08:44:23.631Z,2.40
2018-05-01T08:46:50.555Z,1.00
2018-05-01T08:49:17.443Z,1.40
2018-05-01T08:51:44.303Z,1.00
2018-05-01T08:54:11.248Z,0.90
2018-05-01T08:56:38.175Z,1.30
2018-05-01T08:59:05.083Z,0.70
2018-05-01T09:01:32.062Z,0.80
2018-05-01T09:03:59.177Z,1.00
2018-05-01T09:06:26.157Z,0.73
2018-05-01T09:08:53.063Z,1.70
2018-05-01T09:11:19.978Z,1.45
2018-05-01T09:13:46.844Z,0.73
2018-05-01T09:16:13.789Z,0.90
2018-05-01T09:18:40.889Z,1.30
2018-05-01T09:21:07.732Z,1.27
2018-05-01T09:23:34.671Z,0.77
2018-05-01T09:26:01.588Z,0.80
2018-05-01T09:28:28.454Z,0.80
2018-05-01T09:30:55.347Z,1.17
2018-05-01T09:33:22.242Z,1.10
2018-05-01T09:35:49.456Z,0.60
2018-05-01T09:38:16.385Z,1.77
2018-05-01T09:40:43.355Z,1.48
2018-05-01T09:43:10.335Z,1.40
2018-05-01T09:45:37.207Z,1.73
2018-05-01T09:48:04.145Z,1.87
2018-05-01T09:50:31.035Z,1.67
2018-05-01T09:52:58.431Z,1.45
2018-05-01T09:55:26.138Z,2.33
2018-05-01T09:57:53.591Z,1.55
2018-05-01T10:00:24.864Z,1.15
2018-05-01T10:02:52.303Z,1.35
2018-05-01T10:05:19.906Z,1.10
2018-05-01T10:07:47.398Z,0.90
2018-05-01T10:10:14.829Z,1.45
2018-05-01T10:12:42.313Z,1.05
2018-05-01T10:15:09.760Z,1.55
2018-05-01T10:17:37.239Z,0.98
2018-05-01T10:20:04.974Z,1.10
2018-05-01T10:22:32.488Z,0.75
2018-05-01T10:25:00.000Z,1.83
2018-05-01T10:27:27.501Z,0.80
2018-05-01T10:29:54.956Z,1.45
2018-05-01T10:32:22.394Z,1.30
2018-05-01T10:34:49.824Z,1.08
2018-05-01T10:37:17.362Z,1.60
2018-05-01T10:39:44.831Z,1.85
2018-05-01T10:42:12.305Z,0.70
2018-05-01T10:44:39.831Z,0.70
2018-05-01T10:47:07.283Z,1.10
2018-05-01T10:49:34.790Z,0.80
2018-05-01T10:52:02.289Z,0.77
2018-05-01T10:54:29.716Z,0.70
2018-05-01T10:56:57.144Z,0.80
2018-05-01T10:59:24.790Z,1.33
2018-05-01T11:01:52.244Z,0.80
2018-05-01T11:04:19.832Z,1.70
2018-05-01T11:06:47.272Z,0.98
2018-05-01T11:09:14.724Z,1.37
2018-05-01T11:11:42.207Z,0.85
2018-05-01T11:14:09.602Z,1.30
2018-05-01T11:16:37.011Z,1.40
2018-05-01T11:23:58.685Z,1.00
2018-05-01T11:26:26.198Z,1.05
2018-05-01T11:28:53.676Z,0.90
2018-05-01T11:31:21.148Z,3.35
2018-05-01T11:33:49.389Z,0.73
2018-05-01T11:36:16.856Z,0.90
2018-05-01T11:38:44.259Z,0.70
2018-05-01T11:41:11.722Z,0.80
2018-05-01T11:43:39.162Z,1.35
2018-05-01T11:46:06.572Z,0.90
2018-05-01T11:48:34.059Z,1.00
2018-05-01T11:51:01.539Z,1.30
2018-05-01T11:53:29.044Z,1.67
2018-05-01T11:55:56.825Z,1.00
2018-05-01T11:58:24.250Z,0.95
2018-05-01T12:00:51.672Z,1.00
2018-05-01T12:03:19.070Z,1.30
2018-05-01T12:05:46.468Z,1.40
2018-05-01T12:08:13.997Z,0.98
2018-05-01T12:10:41.489Z,0.80
2018-05-01T12:13:08.930Z,1.33
2018-05-01T12:15:36.508Z,1.20
2018-05-01T12:18:04.066Z,0.93
2018-05-01T12:20:31.466Z,0.95
2018-05-01T12:22:58.955Z,1.37
2018-05-01T12:25:26.408Z,1.20
2018-05-01T12:27:53.893Z,1.70
2018-05-01T12:30:21.356Z,1.20
2018-05-01T12:32:49.163Z,1.05
2018-05-01T12:35:16.591Z,2.08
2018-05-01T12:37:44.037Z,1.67
2018-05-01T12:40:11.559Z,1.90
2018-05-01T12:42:39.068Z,1.25
2018-05-01T12:45:06.609Z,1.92
2018-05-01T12:47:34.000Z,1.45
2018-05-01T12:50:01.962Z,1.42
2018-05-01T12:52:29.420Z,1.42
2018-05-01T12:54:56.836Z,0.90
2018-05-01T12:57:24.527Z,0.93
2018-05-01T12:59:51.936Z,1.00
2018-05-01T13:02:19.337Z,1.77
2018-05-01T13:04:46.751Z,1.75
2018-05-01T13:07:14.213Z,2.20
2018-05-01T13:09:41.652Z,2.53
2018-05-01T13:12:09.078Z,2.05
2018-05-01T13:14:36.532Z,1.75
2018-05-01T13:17:03.990Z,1.55
2018-05-01T13:19:31.392Z,1.55
2018-05-01T13:21:58.865Z,0.95
2018-05-01T13:24:26.341Z,1.75
2018-05-01T13:26:53.762Z,1.45
2018-05-01T13:29:21.166Z,1.60
2018-05-01T13:31:48.631Z,1.20
2018-05-01T13:34:16.101Z,1.27
2018-05-01T13:36:43.546Z,1.80
2018-05-01T13:39:11.077Z,1.40
2018-05-01T13:41:38.551Z,1.12
2018-05-01T13:44:05.992Z,0.93
2018-05-01T13:46:33.455Z,1.23
2018-05-01T13:49:01.128Z,1.80
2018-05-01T13:51:28.549Z,1.20
2018-05-01T13:53:56.109Z,0.75
2018-05-01T13:56:24.313Z,2.75
2018-05-01T13:58:51.772Z,1.80
2018-05-01T14:01:19.166Z,2.67
2018-05-01T14:03:46.821Z,0.70
2018-05-01T14:06:14.417Z,1.00
2018-05-01T14:08:41.880Z,1.70
2018-05-01T14:11:09.447Z,1.02
2018-05-01T14:13:36.775Z,0.88
2018-05-01T14:16:04.282Z,0.90
2018-05-01T14:18:31.817Z,0.90
2018-05-01T14:20:59.145Z,1.98
2018-05-01T14:23:27.426Z,1.00
2018-05-01T14:25:54.883Z,0.80
2018-05-01T14:28:22.310Z,0.88
2018-05-01T14:30:49.879Z,0.90
2018-05-01T14:33:17.319Z,1.00
2018-05-01T14:35:44.952Z,1.10
2018-05-01T14:38:12.396Z,0.90
2018-05-01T14:40:39.841Z,0.80
2018-05-01T14:43:07.764Z,1.40
2018-05-01T14:45:35.188Z,1.20
2018-05-01T14:48:02.678Z,1.25
2018-05-01T14:50:30.104Z,0.88
2018-05-01T14:52:57.536Z,1.17
2018-05-01T14:55:25.022Z,1.10
2018-05-01T14:57:52.483Z,0.90
2018-05-01T15:00:19.980Z,1.00
2018-05-01T15:02:59.175Z,1.00
2018-05-01T15:05:26.656Z,0.90
2018-05-01T15:07:54.150Z,1.05
2018-05-01T15:10:21.546Z,0.98
2018-05-01T15:12:49.074Z,0.73
2018-05-01T15:15:16.537Z,0.73
2018-05-01T15:17:44.024Z,1.02
2018-05-01T15:20:11.461Z,1.17
2018-05-01T15:22:38.913Z,0.80
2018-05-01T15:25:06.356Z,1.17
2018-05-01T15:27:33.798Z,1.17
2018-05-01T15:30:01.421Z,1.00
2018-05-01T15:32:28.848Z,1.20
2018-05-01T15:34:57.215Z,1.37
2018-05-01T15:37:24.880Z,0.80
2018-05-01T15:39:52.317Z,1.10
2018-05-01T15:42:19.710Z,0.90
2018-05-01T15:44:47.259Z,1.00
2018-05-01T15:47:14.730Z,0.93
2018-05-01T15:49:42.189Z,0.82
2018-05-01T15:52:09.586Z,1.60
2018-05-01T15:54:37.097Z,1.45
2018-05-01T15:57:04.543Z,0.80
2018-05-01T15:59:32.008Z,0.93
2018-05-01T16:01:59.441Z,0.90
2018-05-01T16:04:26.836Z,0.98
2018-05-01T16:06:54.386Z,0.90
2018-05-01T16:09:21.878Z,0.80
2018-05-01T16:11:49.276Z,1.33
2018-05-01T16:14:16.762Z,1.80
2018-05-01T16:16:44.186Z,1.05
2018-05-01T16:19:11.794Z,0.80
2018-05-01T16:21:39.280Z,1.10
2018-05-01T16:24:06.734Z,1.10
2018-05-01T16:26:34.193Z,1.10
2018-05-01T16:29:01.708Z,1.17
2018-05-01T16:31:29.149Z,1.75
2018-05-01T16:33:56.733Z,0.85
2018-05-01T16:36:24.081Z,1.20
2018-05-01T16:38:51.589Z,0.90
2018-05-01T16:41:18.988Z,1.40
2018-05-01T16:43:46.469Z,1.10
2018-05-01T16:46:13.927Z,1.02
2018-05-01T16:48:41.361Z,1.30
2018-05-01T16:51:08.891Z,0.80
2018-05-01T16:53:36.280Z,0.90
2018-05-01T16:56:03.757Z,1.27
2018-05-01T16:58:31.226Z,1.33
2018-05-01T17:00:58.684Z,1.25
2018-05-01T17:03:26.293Z,1.42
2018-05-01T17:05:53.684Z,2.83
2018-05-01T17:08:21.310Z,1.48
2018-05-01T17:10:48.829Z,0.90
2018-05-01T17:13:16.332Z,1.12
2018-05-01T17:15:43.817Z,1.45
2018-05-01T17:18:11.251Z,2.10
2018-05-01T17:20:38.908Z,1.20
2018-05-01T17:23:06.361Z,2.10
2018-05-01T17:25:33.843Z,2.10
2018-05-01T17:28:01.391Z,1.73
2018-05-01T17:30:28.755Z,1.70
2018-05-01T17:32:56.171Z,2.20
2018-05-01T17:35:23.644Z,1.30
2018-05-01T17:37:51.084Z,1.42
2018-05-01T17:40:18.472Z,1.60
2018-05-01T17:42:45.913Z,2.08
2018-05-01T17:45:13.344Z,2.05
2018-05-01T17:47:40.930Z,1.75
2018-05-01T17:50:08.396Z,2.17
2018-05-01T17:52:35.867Z,1.90
2018-05-01T17:55:03.357Z,2.15
2018-05-01T17:57:30.872Z,1.83
2018-05-01T17:59:58.325Z,1.95
2018-05-01T18:02:25.944Z,2.30
2018-05-01T18:04:53.343Z,2.95
2018-05-01T18:07:20.843Z,1.60
2018-05-01T18:09:48.356Z,2.40
2018-05-01T18:12:15.750Z,2.00
2018-05-01T18:14:43.216Z,1.48
2018-05-01T18:17:10.632Z,1.60
2018-05-01T18:19:38.026Z,1.90
2018-05-01T18:22:05.423Z,1.58
2018-05-01T18:24:32.925Z,1.20
2018-05-01T18:27:00.321Z,1.77
2018-05-01T18:29:27.715Z,1.58
2018-05-01T18:31:55.196Z,1.45
2018-05-01T18:34:22.642Z,1.15
2018-05-01T18:36:50.151Z,1.58
2018-05-01T18:39:17.617Z,0.80
2018-05-01T18:41:45.073Z,2.03
2018-05-01T18:44:12.673Z,1.55
2018-05-01T18:46:40.145Z,1.23
2018-05-01T18:49:07.580Z,1.23
2018-05-01T18:51:35.233Z,1.00
2018-05-01T18:54:02.770Z,1.55
2018-05-01T18:56:30.264Z,1.12
2018-05-01T18:58:57.709Z,0.90
2018-05-01T19:01:25.127Z,0.90
2018-05-01T19:03:53.144Z,0.95
2018-05-01T19:06:20.721Z,1.42
2018-05-01T19:08:48.163Z,1.00
2018-05-01T19:11:15.696Z,1.20
2018-05-01T19:13:43.126Z,2.25
2018-05-01T19:16:11.548Z,2.10
2018-05-01T19:18:38.967Z,1.65
2018-05-01T19:21:06.419Z,1.75
2018-05-01T19:23:33.884Z,1.40
2018-05-01T19:26:01.337Z,1.10
2018-05-01T19:28:28.738Z,1.48
2018-05-01T19:30:56.372Z,1.35
2018-05-01T19:33:24.668Z,1.52
2018-05-01T19:35:52.155Z,1.05
2018-05-01T19:38:19.602Z,1.48
2018-05-01T19:40:47.038Z,1.75
2018-05-01T19:43:14.502Z,1.35
2018-05-01T19:45:42.071Z,1.50
2018-05-01T19:48:10.139Z,1.70
2018-05-01T19:50:38.407Z,2.00
2018-05-01T19:53:06.393Z,1.80
2018-05-01T19:55:33.844Z,1.23
2018-05-01T19:58:01.304Z,2.10
2018-05-01T20:00:28.724Z,1.50
2018-05-01T20:02:57.034Z,2.20
2018-05-01T20:05:24.686Z,1.55
2018-05-01T20:07:52.169Z,1.48
2018-05-01T20:10:19.612Z,1.50
2018-05-01T20:12:47.010Z,1.83
2018-05-01T20:15:14.731Z,1.65
2018-05-01T20:17:42.179Z,2.50
2018-05-01T20:20:09.573Z,3.17
2018-05-01T20:22:37.026Z,2.62
2018-05-01T20:25:04.490Z,3.35
2018-05-01T20:27:32.937Z,1.87
2018-05-01T20:30:00.393Z,2.55
2018-05-01T20:32:27.913Z,2.33
2018-05-01T20:34:55.343Z,2.05
2018-05-01T20:37:22.827Z,2.45
2018-05-01T20:39:50.263Z,2.35
2018-05-01T20:42:17.716Z,1.83
2018-05-01T20:44:45.146Z,2.15
2018-05-01T20:47:12.579Z,2.42
2018-05-01T20:49:40.041Z,2.90
2018-05-01T20:52:07.618Z,3.60
2018-05-01T20:54:35.182Z,3.12
2018-05-01T20:57:03.045Z,2.90
2018-05-01T20:59:30.446Z,3.20
2018-05-01T21:01:57.839Z,2.80
2018-05-01T21:04:25.287Z,2.70
2018-05-01T21:06:52.702Z,3.15
2018-05-01T21:09:20.109Z,2.83
2018-05-01T21:11:47.571Z,3.22
2018-05-01T21:14:15.015Z,4.07
2018-05-01T21:16:42.461Z,3.12
2018-05-01T21:19:09.852Z,3.17
2018-05-01T21:21:37.295Z,2.47
2018-05-01T21:24:04.687Z,2.45
2018-05-01T21:26:32.121Z,2.58
2018-05-01T21:28:59.665Z,2.90
2018-05-01T21:31:27.135Z,2.75
2018-05-01T21:33:54.526Z,3.60
2018-05-01T21:36:22.156Z,2.65
2018-05-01T21:38:49.616Z,2.53
2018-05-01T21:41:17.041Z,3.22
2018-05-01T21:43:44.459Z,3.50
2018-05-01T21:46:11.950Z,3.28
2018-05-01T21:48:39.386Z,3.58
2018-05-01T21:51:06.866Z,2.60
2018-05-01T21:53:34.290Z,3.15
2018-05-01T21:56:01.678Z,2.25
2018-05-01T21:58:29.173Z,2.78
2018-05-01T22:00:56.634Z,2.55
2018-05-01T22:03:24.101Z,2.62
2018-05-01T22:05:51.511Z,2.40
2018-05-01T22:08:18.935Z,2.05
2018-05-01T22:10:46.404Z,3.20
2018-05-01T22:13:14.307Z,2.30
2018-05-01T22:15:41.744Z,2.05
2018-05-01T22:18:09.224Z,2.00
2018-05-01T22:20:36.663Z,3.35
2018-05-01T22:23:04.059Z,2.42
2018-05-01T22:25:31.468Z,2.62
2018-05-01T22:27:58.900Z,2.28
2018-05-01T22:30:26.325Z,2.12
2018-05-01T22:32:53.746Z,2.45
2018-05-01T22:35:21.151Z,2.58
2018-05-01T22:37:48.782Z,2.40
2018-05-01T22:40:16.174Z,2.42
2018-05-01T22:42:43.607Z,2.62
2018-05-01T22:45:11.043Z,2.60
2018-05-01T22:47:38.545Z,2.75
2018-05-01T22:50:05.961Z,3.08
2018-05-01T22:52:33.395Z,2.20
2018-05-01T22:55:00.884Z,3.20
2018-05-01T22:57:28.299Z,3.00
2018-05-01T22:59:55.777Z,2.53
2018-05-01T23:02:23.236Z,4.30
2018-05-01T23:04:50.652Z,3.08
2018-05-01T23:07:18.081Z,2.33
2018-05-01T23:09:45.522Z,2.85
2018-05-01T23:12:12.943Z,2.55
2018-05-01T23:14:40.379Z,2.28
2018-05-01T23:17:07.813Z,3.40
2018-05-01T23:19:35.248Z,2.42
2018-05-01T23:22:02.704Z,3.45
2018-05-01T23:24:30.260Z,2.80
2018-05-01T23:26:57.759Z,2.40
2018-05-01T23:29:25.160Z,2.40
2018-05-01T23:31:52.583Z,2.58
2018-05-01T23:34:20.037Z,2.95
2018-05-01T23:36:47.456Z,2.92
2018-05-01T23:39:14.906Z,2.83
2018-05-01T23:41:42.369Z,2.72
2018-05-01T23:44:09.794Z,3.83
2018-05-01T23:46:37.214Z,3.40
2018-05-01T23:49:05.436Z,3.05
2018-05-01T23:51:32.825Z,2.97
2018-05-01T23:54:00.361Z,3.03
2018-05-01T23:56:27.828Z,2.10
2018-05-01T23:58:55.247Z,2.17
